createdAt,value
2018-05-07T00:00:47.670Z,16.00
2018-05-07T00:03:14.414Z,15.90
2018-05-07T00:05:41.126Z,15.90
2018-05-07T00:08:14.075Z,15.90
2018-05-07T00:10:40.766Z,15.80
2018-05-07T00:13:06.717Z,15.80
2018-05-07T00:15:33.078Z,15.70
2018-05-07T00:17:59.137Z,15.80
2018-05-07T00:20:25.145Z,15.70
2018-05-07T00:22:52.617Z,15.70
2018-05-07T00:25:18.571Z,15.70
2018-05-07T00:27:44.534Z,15.70
2018-05-07T00:30:10.623Z,15.80
2018-05-07T00:32:36.583Z,15.70
2018-05-07T00:35:02.550Z,15.70
2018-05-07T00:37:28.570Z,15.70
2018-05-07T00:39:55.286Z,15.50
2018-05-07T00:42:21.251Z,15.50
2018-05-07T00:44:48.258Z,15.50
2018-05-07T00:47:14.214Z,15.50
2018-05-07T00:49:40.638Z,15.40
2018-05-07T00:52:06.622Z,15.40
2018-05-07T00:54:32.578Z,15.30
2018-05-07T00:56:58.554Z,15.20
2018-05-07T00:59:24.588Z,15.10
2018-05-07T01:01:50.553Z,15.00
2018-05-07T01:04:16.510Z,15.00
2018-05-07T01:06:43.260Z,15.00
2018-05-07T01:09:09.959Z,15.00
2018-05-07T01:11:35.952Z,15.00
2018-05-07T01:14:01.934Z,14.90
2018-05-07T01:16:27.993Z,14.90
2018-05-07T01:18:54.069Z,15.00
2018-05-07T01:21:20.043Z,15.00
2018-05-07T01:23:46.002Z,15.00
2018-05-07T01:26:11.992Z,14.90
2018-05-07T01:28:37.997Z,14.90
2018-05-07T01:31:04.723Z,14.90
2018-05-07T01:33:30.701Z,14.90
2018-05-07T01:35:56.713Z,15.00
2018-05-07T01:38:23.459Z,15.10
2018-05-07T01:40:50.908Z,15.00
2018-05-07T01:43:16.888Z,14.90
2018-05-07T01:45:43.589Z,14.70
2018-05-07T01:48:09.555Z,14.70
2018-05-07T01:50:35.588Z,14.70
2018-05-07T01:53:02.310Z,14.80
2018-05-07T01:55:28.315Z,14.80
2018-05-07T01:57:54.795Z,14.90
2018-05-07T02:00:20.767Z,14.90
2018-05-07T02:02:46.717Z,14.90
2018-05-07T02:05:13.443Z,14.90
2018-05-07T02:07:39.403Z,14.80
2018-05-07T02:10:06.114Z,14.80
2018-05-07T02:12:32.126Z,14.80
2018-05-07T02:14:58.139Z,14.90
2018-05-07T02:17:24.123Z,14.90
2018-05-07T02:19:50.470Z,14.70
2018-05-07T02:22:16.439Z,14.70
2018-05-07T02:24:43.134Z,14.80
2018-05-07T02:27:09.142Z,14.80
2018-05-07T02:29:35.120Z,14.70
2018-05-07T02:32:01.111Z,14.90
2018-05-07T02:34:27.144Z,15.00
2018-05-07T02:36:53.132Z,15.00
2018-05-07T02:39:19.141Z,15.00
2018-05-07T02:41:45.126Z,14.90
2018-05-07T02:44:11.871Z,15.00
2018-05-07T02:46:37.856Z,14.90
2018-05-07T02:49:03.866Z,14.80
2018-05-07T02:51:30.671Z,14.90
2018-05-07T02:53:56.661Z,14.90
2018-05-07T02:56:22.656Z,14.90
2018-05-07T02:58:48.630Z,14.90
2018-05-07T03:01:15.359Z,14.80
2018-05-07T03:03:41.346Z,14.80
2018-05-07T03:06:07.307Z,14.80
2018-05-07T03:08:33.283Z,14.80
2018-05-07T03:11:00.054Z,14.70
2018-05-07T03:13:26.035Z,14.70
2018-05-07T03:15:52.004Z,14.60
2018-05-07T03:18:18.724Z,14.60
2018-05-07T03:20:45.021Z,14.60
2018-05-07T03:23:10.976Z,14.60
2018-05-07T03:25:36.982Z,14.50
2018-05-07T03:28:03.674Z,14.40
2018-05-07T03:30:29.687Z,14.30
2018-05-07T03:32:55.741Z,14.30
2018-05-07T03:35:21.714Z,14.30
2018-05-07T03:37:47.680Z,14.20
2018-05-07T03:40:14.616Z,14.10
2018-05-07T03:42:40.585Z,14.00
2018-05-07T03:45:06.555Z,14.10
2018-05-07T03:47:32.521Z,14.00
2018-05-07T03:49:58.501Z,14.00
2018-05-07T03:52:24.463Z,14.10
2018-05-07T03:54:57.477Z,14.10
2018-05-07T03:57:23.426Z,14.10
2018-05-07T03:59:50.875Z,14.00
2018-05-07T04:02:16.830Z,14.00
2018-05-07T04:04:42.795Z,14.10
2018-05-07T04:07:09.532Z,14.10
2018-05-07T04:09:35.642Z,14.00
2018-05-07T04:12:01.635Z,14.20
2018-05-07T04:14:27.672Z,14.30
2018-05-07T04:17:06.074Z,14.30
2018-05-07T04:19:45.402Z,14.30
2018-05-07T04:25:18.095Z,14.50
2018-05-07T04:27:44.072Z,14.40
2018-05-07T04:30:10.056Z,14.50
2018-05-07T04:32:36.035Z,14.50
2018-05-07T04:35:02.190Z,14.60
2018-05-07T04:37:28.208Z,14.70
2018-05-07T04:39:54.209Z,14.70
2018-05-07T04:42:20.194Z,14.80
2018-05-07T04:44:46.164Z,14.80
2018-05-07T04:47:12.122Z,14.90
2018-05-07T04:49:38.187Z,15.00
2018-05-07T04:52:04.138Z,15.00
2018-05-07T04:54:30.150Z,15.10
2018-05-07T04:56:56.172Z,15.30
2018-05-07T04:59:22.140Z,16.20
2018-05-07T05:01:48.128Z,17.30
2018-05-07T05:04:14.135Z,17.10
2018-05-07T05:06:40.844Z,17.00
2018-05-07T05:09:06.807Z,17.00
2018-05-07T05:11:32.804Z,17.40
2018-05-07T05:13:58.815Z,17.70
2018-05-07T05:16:24.814Z,20.20
2018-05-07T05:18:50.782Z,21.70
2018-05-07T05:21:16.811Z,22.90
2018-05-07T05:23:42.752Z,23.80
2018-05-07T05:26:09.451Z,25.30
2018-05-07T05:28:35.412Z,25.20
2018-05-07T05:31:02.124Z,25.70
2018-05-07T05:33:28.161Z,25.70
2018-05-07T05:35:54.118Z,25.90
2018-05-07T05:38:20.147Z,26.20
2018-05-07T05:40:46.291Z,25.80
2018-05-07T05:43:12.247Z,26.80
2018-05-07T05:45:38.208Z,27.40
2018-05-07T05:48:04.192Z,28.10
2018-05-07T05:50:30.199Z,29.20
2018-05-07T05:52:56.178Z,29.30
2018-05-07T05:55:22.160Z,28.80
2018-05-07T05:57:48.130Z,28.60
2018-05-07T06:00:14.156Z,28.40
2018-05-07T06:02:40.158Z,28.40
2018-05-07T06:05:06.140Z,28.80
2018-05-07T06:07:32.124Z,29.30
2018-05-07T06:09:58.222Z,29.30
2018-05-07T06:12:24.386Z,29.50
2018-05-07T06:14:50.653Z,30.30
2018-05-07T06:17:16.982Z,30.80
2018-05-07T06:19:43.893Z,31.30
2018-05-07T06:22:10.101Z,31.20
2018-05-07T06:24:43.198Z,31.40
2018-05-07T06:27:09.257Z,31.30
2018-05-07T06:29:35.620Z,32.10
2018-05-07T06:32:02.010Z,31.00
2018-05-07T06:34:28.065Z,33.40
2018-05-07T06:36:53.967Z,33.90
2018-05-07T06:39:20.712Z,32.40
2018-05-07T06:41:46.666Z,32.40
2018-05-07T06:44:13.372Z,31.50
2018-05-07T06:46:39.359Z,31.50
2018-05-07T06:49:05.366Z,31.20
2018-05-07T06:51:32.825Z,31.70
2018-05-07T06:53:58.855Z,31.60
2018-05-07T06:56:24.823Z,32.40
2018-05-07T06:58:51.529Z,32.40
2018-05-07T07:01:17.520Z,32.30
2018-05-07T07:03:51.184Z,31.90
2018-05-07T07:06:17.150Z,31.90
2018-05-07T07:08:43.106Z,31.70
2018-05-07T07:11:09.810Z,31.00
2018-05-07T07:13:35.803Z,31.00
2018-05-07T07:16:01.787Z,30.20
2018-05-07T07:18:27.849Z,29.30
2018-05-07T07:20:53.867Z,29.80
2018-05-07T07:23:20.299Z,31.40
2018-05-07T07:25:46.283Z,31.00
2018-05-07T07:28:19.887Z,31.60
2018-05-07T07:30:45.836Z,31.50
2018-05-07T07:33:12.538Z,32.40
2018-05-07T07:35:38.684Z,32.30
2018-05-07T07:38:04.750Z,33.30
2018-05-07T07:40:31.765Z,33.60
2018-05-07T07:42:58.051Z,33.60
2018-05-07T07:45:24.759Z,30.60
2018-05-07T07:47:50.718Z,30.60
2018-05-07T07:50:17.994Z,31.70
2018-05-07T07:52:43.983Z,31.60
2018-05-07T07:55:10.975Z,32.90
2018-05-07T07:57:37.064Z,33.60
2018-05-07T08:00:03.024Z,33.90
2018-05-07T08:02:29.083Z,35.60
2018-05-07T08:04:56.876Z,35.50
2018-05-07T08:07:22.840Z,35.50
2018-05-07T08:09:48.802Z,35.70
2018-05-07T08:12:14.932Z,36.00
2018-05-07T08:14:40.834Z,37.50
2018-05-07T08:17:07.552Z,34.90
2018-05-07T08:19:33.798Z,34.80
2018-05-07T08:21:59.834Z,34.60
2018-05-07T08:24:25.815Z,35.20
2018-05-07T08:26:51.912Z,35.80
2018-05-07T08:29:17.888Z,35.20
2018-05-07T08:31:43.851Z,36.30
2018-05-07T08:34:09.854Z,37.30
2018-05-07T08:36:35.843Z,36.70
2018-05-07T08:39:01.900Z,35.40
2018-05-07T08:41:28.781Z,35.20
2018-05-07T08:43:54.769Z,35.20
2018-05-07T08:46:20.726Z,33.60
2018-05-07T08:48:46.740Z,35.40
2018-05-07T08:51:12.713Z,33.80
2018-05-07T08:53:39.695Z,33.70
2018-05-07T08:56:05.801Z,33.70
2018-05-07T08:58:31.857Z,33.90
2018-05-07T09:00:58.603Z,31.50
2018-05-07T09:03:26.429Z,32.60
2018-05-07T09:05:52.436Z,32.50
2018-05-07T09:08:18.408Z,32.50
2018-05-07T09:10:44.397Z,33.10
2018-05-07T09:13:11.115Z,31.80
2018-05-07T09:15:38.561Z,31.90
2018-05-07T09:18:04.566Z,31.90
2018-05-07T09:20:30.622Z,30.50
2018-05-07T09:22:56.624Z,29.30
2018-05-07T09:25:22.616Z,28.00
2018-05-07T09:27:48.574Z,25.80
2018-05-07T09:30:14.532Z,25.30
2018-05-07T09:32:40.791Z,24.10
2018-05-07T09:35:06.789Z,24.00
2018-05-07T09:37:32.811Z,24.10
2018-05-07T09:39:59.065Z,23.80
2018-05-07T09:42:25.059Z,23.60
2018-05-07T09:44:51.035Z,23.50
2018-05-07T09:47:17.016Z,23.40
2018-05-07T09:49:42.958Z,22.80
2018-05-07T09:52:08.924Z,22.50
2018-05-07T09:54:34.938Z,22.70
2018-05-07T09:57:00.926Z,22.30
2018-05-07T09:59:27.676Z,21.80
2018-05-07T10:01:53.895Z,21.70
2018-05-07T10:04:19.852Z,22.00
2018-05-07T10:06:46.550Z,22.70
2018-05-07T10:09:12.566Z,22.70
2018-05-07T10:11:38.935Z,22.60
2018-05-07T10:14:04.911Z,22.40
2018-05-07T10:16:33.175Z,22.60
2018-05-07T10:18:59.180Z,22.50
2018-05-07T10:21:25.239Z,22.40
2018-05-07T10:23:51.282Z,22.40
2018-05-07T10:26:17.237Z,22.50
2018-05-07T10:28:43.214Z,22.30
2018-05-07T10:31:09.210Z,22.30
2018-05-07T10:33:35.183Z,22.10
2018-05-07T10:36:01.200Z,22.00
2018-05-07T10:38:27.399Z,22.00
2018-05-07T10:40:55.741Z,22.20
2018-05-07T10:43:22.453Z,22.40
2018-05-07T10:45:48.446Z,22.30
2018-05-07T10:48:14.429Z,22.30
2018-05-07T10:50:40.405Z,22.40
2018-05-07T10:53:06.703Z,22.50
2018-05-07T10:55:32.696Z,22.60
2018-05-07T10:57:58.720Z,22.60
2018-05-07T11:00:24.730Z,22.40
2018-05-07T11:02:50.693Z,22.20
2018-05-07T11:05:17.444Z,22.30
2018-05-07T11:07:43.545Z,22.60
2018-05-07T11:10:11.004Z,22.80
2018-05-07T11:12:36.980Z,22.80
2018-05-07T11:15:03.721Z,22.80
2018-05-07T11:17:30.450Z,22.70
2018-05-07T11:19:56.439Z,22.70
2018-05-07T11:22:22.464Z,22.80
2018-05-07T11:24:48.734Z,22.80
2018-05-07T11:27:14.713Z,22.90
2018-05-07T11:29:42.588Z,22.90
2018-05-07T11:32:08.562Z,22.90
2018-05-07T11:34:34.530Z,22.90
2018-05-07T11:37:00.590Z,22.80
2018-05-07T11:39:26.607Z,22.80
2018-05-07T11:41:52.704Z,22.50
2018-05-07T11:44:18.675Z,22.60
2018-05-07T11:46:44.639Z,22.80
2018-05-07T11:49:10.604Z,22.90
2018-05-07T11:51:37.313Z,23.00
2018-05-07T11:54:03.271Z,22.90
2018-05-07T11:56:29.347Z,23.10
2018-05-07T11:58:55.397Z,23.10
2018-05-07T12:01:21.742Z,23.10
2018-05-07T12:03:54.621Z,23.20
2018-05-07T12:06:20.605Z,23.00
2018-05-07T12:08:46.770Z,22.80
2018-05-07T12:11:13.503Z,23.10
2018-05-07T12:13:46.442Z,23.10
2018-05-07T12:16:12.401Z,23.40
2018-05-07T12:18:38.685Z,23.50
2018-05-07T12:21:04.672Z,23.50
2018-05-07T12:23:30.670Z,23.60
2018-05-07T12:25:57.440Z,23.40
2018-05-07T12:28:23.407Z,23.40
2018-05-07T12:30:49.755Z,23.30
2018-05-07T12:33:15.734Z,23.10
2018-05-07T12:35:41.691Z,23.30
2018-05-07T12:38:08.390Z,23.50
2018-05-07T12:40:34.445Z,23.50
2018-05-07T12:43:00.541Z,23.60
2018-05-07T12:45:26.556Z,23.60
2018-05-07T12:47:52.930Z,23.70
2018-05-07T12:50:19.184Z,23.50
2018-05-07T12:52:45.259Z,23.60
2018-05-07T12:55:11.996Z,23.50
2018-05-07T12:57:37.976Z,23.60
2018-05-07T13:00:03.952Z,23.50
2018-05-07T13:02:30.163Z,23.60
2018-05-07T13:04:56.191Z,23.50
2018-05-07T13:07:22.184Z,23.50
2018-05-07T13:09:48.310Z,23.40
2018-05-07T13:12:14.266Z,23.40
2018-05-07T13:14:40.967Z,23.30
2018-05-07T13:17:07.231Z,23.30
2018-05-07T13:19:33.900Z,23.50
2018-05-07T13:21:59.923Z,23.40
2018-05-07T13:24:26.157Z,23.60
2018-05-07T13:26:52.507Z,23.40
2018-05-07T13:29:18.494Z,23.40
2018-05-07T13:31:45.067Z,23.40
2018-05-07T13:34:11.032Z,23.50
2018-05-07T13:36:37.020Z,23.70
2018-05-07T13:39:03.098Z,23.80
2018-05-07T13:41:29.126Z,23.90
2018-05-07T13:43:55.589Z,23.90
2018-05-07T13:46:21.617Z,23.90
2018-05-07T13:48:47.572Z,24.00
2018-05-07T13:51:14.294Z,23.80
2018-05-07T13:53:40.250Z,23.90
2018-05-07T13:56:06.206Z,23.80
2018-05-07T13:58:32.241Z,23.80
2018-05-07T14:00:59.134Z,23.80
2018-05-07T14:03:25.184Z,23.80
2018-05-07T14:05:51.178Z,23.90
2018-05-07T14:08:17.920Z,23.90
2018-05-07T14:10:43.887Z,23.90
2018-05-07T14:13:10.163Z,23.90
2018-05-07T14:15:36.194Z,23.90
2018-05-07T14:18:02.201Z,23.90
2018-05-07T14:20:28.310Z,23.80
2018-05-07T14:22:55.300Z,23.70
2018-05-07T14:25:22.275Z,23.80
2018-05-07T14:27:48.231Z,23.90
2018-05-07T14:30:14.246Z,24.00
2018-05-07T14:32:40.356Z,24.10
2018-05-07T14:35:07.065Z,24.20
2018-05-07T14:37:33.093Z,24.10
2018-05-07T14:39:59.125Z,24.20
2018-05-07T14:42:26.120Z,24.10
2018-05-07T14:44:52.876Z,24.00
2018-05-07T14:47:18.840Z,24.00
2018-05-07T14:49:44.826Z,23.90
2018-05-07T14:52:10.791Z,24.20
2018-05-07T14:54:37.494Z,24.20
2018-05-07T14:57:03.474Z,24.20
2018-05-07T14:59:30.231Z,24.30
2018-05-07T15:01:56.972Z,24.30
2018-05-07T15:04:22.959Z,24.20
2018-05-07T15:06:48.974Z,24.30
2018-05-07T15:09:14.930Z,24.40
2018-05-07T15:11:40.895Z,24.40
2018-05-07T15:14:19.141Z,24.30
2018-05-07T15:16:45.843Z,24.40
2018-05-07T15:19:11.815Z,24.40
2018-05-07T15:21:37.945Z,24.50
2018-05-07T15:24:03.973Z,24.40
2018-05-07T15:26:30.004Z,24.40
2018-05-07T15:28:56.074Z,24.40
2018-05-07T15:31:22.828Z,24.30
2018-05-07T15:33:49.398Z,24.30
2018-05-07T15:36:16.124Z,24.30
2018-05-07T15:38:42.771Z,24.10
2018-05-07T15:41:08.756Z,24.30
2018-05-07T15:43:34.730Z,24.30
2018-05-07T15:46:00.750Z,24.30
2018-05-07T15:48:26.804Z,24.30
2018-05-07T15:50:52.864Z,24.30
2018-05-07T15:53:18.840Z,24.30
2018-05-07T15:55:44.821Z,24.30
2018-05-07T15:58:11.034Z,24.20
2018-05-07T16:00:36.999Z,24.30
2018-05-07T16:03:03.044Z,24.40
2018-05-07T16:05:29.009Z,24.40
2018-05-07T16:07:54.985Z,24.40
2018-05-07T16:10:20.959Z,24.40
2018-05-07T16:12:47.734Z,24.30
2018-05-07T16:15:13.768Z,24.20
2018-05-07T16:17:39.686Z,24.20
2018-05-07T16:20:06.620Z,24.30
2018-05-07T16:22:32.625Z,24.20
2018-05-07T16:25:00.566Z,24.20
2018-05-07T16:27:27.222Z,24.20
2018-05-07T16:29:54.159Z,24.30
2018-05-07T16:32:20.127Z,24.20
2018-05-07T16:34:46.303Z,24.40
2018-05-07T16:37:12.266Z,24.30
2018-05-07T16:39:38.226Z,24.30
2018-05-07T16:42:05.152Z,24.10
2018-05-07T16:44:31.170Z,24.10
2018-05-07T16:46:57.195Z,24.10
2018-05-07T16:49:23.952Z,24.10
2018-05-07T16:51:49.916Z,24.00
2018-05-07T16:54:16.212Z,24.00
2018-05-07T16:56:42.111Z,24.00
2018-05-07T16:59:08.823Z,24.00
2018-05-07T17:01:34.816Z,24.00
2018-05-07T17:04:00.847Z,24.00
2018-05-07T17:06:27.575Z,23.90
2018-05-07T17:08:53.536Z,23.90
2018-05-07T17:11:20.301Z,23.80
2018-05-07T17:13:46.251Z,23.80
2018-05-07T17:16:12.217Z,23.80
2018-05-07T17:18:38.200Z,23.80
2018-05-07T17:21:04.340Z,23.80
2018-05-07T17:23:30.331Z,23.80
2018-05-07T17:25:56.339Z,23.90
2018-05-07T17:28:22.302Z,23.70
2018-05-07T17:30:48.270Z,23.70
2018-05-07T17:33:15.028Z,23.60
2018-05-07T17:35:41.747Z,23.60
2018-05-07T17:38:07.746Z,23.50
2018-05-07T17:40:33.815Z,23.50
2018-05-07T17:43:00.235Z,23.40
2018-05-07T17:48:42.617Z,23.40
2018-05-07T17:51:08.598Z,23.20
2018-05-07T17:53:35.329Z,23.30
2018-05-07T17:56:02.072Z,23.20
2018-05-07T17:58:28.075Z,23.10
2018-05-07T18:00:54.060Z,23.10
2018-05-07T18:03:20.769Z,23.10
2018-05-07T18:05:46.754Z,23.00
2018-05-07T18:08:12.755Z,22.90
2018-05-07T18:10:38.776Z,22.80
2018-05-07T18:13:04.858Z,22.70
2018-05-07T18:15:31.595Z,22.60
2018-05-07T18:17:57.612Z,22.50
2018-05-07T18:20:23.779Z,22.40
2018-05-07T18:22:49.779Z,22.10
2018-05-07T18:25:15.765Z,21.90
2018-05-07T18:27:42.511Z,21.70
2018-05-07T18:30:08.499Z,21.70
2018-05-07T18:32:34.715Z,21.50
2018-05-07T18:35:01.002Z,21.30
2018-05-07T18:37:27.755Z,21.00
2018-05-07T18:39:53.785Z,21.00
2018-05-07T18:42:19.939Z,20.80
2018-05-07T18:44:45.903Z,20.60
2018-05-07T18:47:12.612Z,20.40
2018-05-07T18:49:38.592Z,20.40
2018-05-07T18:52:05.463Z,20.30
2018-05-07T18:54:32.155Z,20.10
2018-05-07T18:56:58.345Z,20.10
2018-05-07T18:59:24.340Z,20.00
2018-05-07T19:01:50.339Z,19.80
2018-05-07T19:04:16.367Z,19.70
2018-05-07T19:06:42.330Z,19.60
2018-05-07T19:09:08.300Z,19.50
2018-05-07T19:11:34.318Z,19.30
2018-05-07T19:14:00.320Z,19.20
2018-05-07T19:16:27.144Z,19.20
2018-05-07T19:18:53.874Z,19.00
2018-05-07T19:21:19.848Z,19.00
2018-05-07T19:23:45.820Z,19.10
2018-05-07T19:26:11.811Z,19.10
2018-05-07T19:28:38.533Z,19.20
2018-05-07T19:31:04.555Z,19.20
2018-05-07T19:33:30.825Z,19.20
2018-05-07T19:35:56.938Z,19.20
2018-05-07T19:38:23.562Z,19.20
2018-05-07T19:40:49.685Z,19.20
2018-05-07T19:43:15.646Z,19.20
2018-05-07T19:45:41.617Z,19.20
2018-05-07T19:48:07.605Z,19.10
2018-05-07T19:50:33.562Z,19.20
2018-05-07T19:52:59.585Z,19.20
2018-05-07T19:55:25.584Z,19.30
2018-05-07T19:57:52.282Z,19.20
2018-05-07T20:00:18.288Z,19.20
2018-05-07T20:02:44.262Z,19.20
2018-05-07T20:05:10.222Z,19.20
2018-05-07T20:07:36.205Z,19.20
2018-05-07T20:10:02.260Z,19.20
2018-05-07T20:12:28.359Z,19.30
2018-05-07T20:14:54.333Z,19.30
2018-05-07T20:17:21.642Z,19.30
2018-05-07T20:19:48.344Z,19.40
2018-05-07T20:22:14.306Z,19.40
2018-05-07T20:24:40.301Z,19.30
2018-05-07T20:27:06.262Z,19.40
2018-05-07T20:29:32.261Z,19.40
2018-05-07T20:31:58.242Z,19.40
2018-05-07T20:34:24.218Z,19.40
2018-05-07T20:36:50.951Z,19.40
2018-05-07T20:39:16.956Z,19.30
2018-05-07T20:41:42.941Z,19.40
2018-05-07T20:44:09.661Z,19.30
2018-05-07T20:46:35.642Z,19.30
2018-05-07T20:49:01.673Z,19.20
2018-05-07T20:51:28.435Z,19.30
2018-05-07T20:53:54.427Z,19.30
2018-05-07T20:56:20.431Z,19.20
2018-05-07T20:58:46.387Z,19.20
2018-05-07T21:01:12.415Z,19.20
2018-05-07T21:03:38.392Z,19.20
2018-05-07T21:06:05.154Z,19.20
2018-05-07T21:08:32.696Z,19.10
2018-05-07T21:10:58.755Z,19.00
2018-05-07T21:13:25.576Z,19.10
2018-05-07T21:15:51.629Z,19.00
2018-05-07T21:18:17.615Z,19.00
2018-05-07T21:20:43.720Z,19.00
2018-05-07T21:23:09.750Z,19.00
2018-05-07T21:25:35.749Z,19.10
2018-05-07T21:28:01.745Z,19.10
2018-05-07T21:30:28.568Z,19.10
2018-05-07T21:32:55.295Z,19.10
2018-05-07T21:35:21.271Z,19.00
2018-05-07T21:37:48.060Z,18.90
2018-05-07T21:40:14.039Z,18.90
2018-05-07T21:42:40.003Z,18.80
2018-05-07T21:45:06.796Z,18.90
2018-05-07T21:47:32.832Z,18.90
2018-05-07T21:49:58.871Z,18.90
2018-05-07T21:52:24.846Z,18.90
2018-05-07T21:54:50.823Z,18.90
2018-05-07T21:57:16.797Z,18.80
2018-05-07T21:59:42.800Z,18.90
2018-05-07T22:02:08.799Z,18.90
2018-05-07T22:04:34.866Z,18.80
2018-05-07T22:07:00.915Z,18.80
2018-05-07T22:09:26.952Z,18.80
2018-05-07T22:11:52.922Z,18.80
2018-05-07T22:14:18.934Z,18.70
2018-05-07T22:16:44.909Z,18.70
2018-05-07T22:19:10.887Z,18.70
2018-05-07T22:21:36.890Z,18.70
2018-05-07T22:24:02.897Z,18.60
2018-05-07T22:26:28.888Z,18.50
2018-05-07T22:28:55.079Z,18.60
2018-05-07T22:31:22.545Z,18.50
2018-05-07T22:33:48.511Z,18.50
2018-05-07T22:36:14.727Z,18.40
2018-05-07T22:38:40.702Z,18.30
2018-05-07T22:41:07.429Z,18.40
2018-05-07T22:43:33.453Z,18.40
2018-05-07T22:45:59.504Z,18.30
2018-05-07T22:48:26.279Z,18.20
2018-05-07T22:50:53.015Z,18.10
2018-05-07T22:53:18.994Z,18.10
2018-05-07T22:55:44.994Z,18.20
2018-05-07T22:58:11.728Z,18.20
2018-05-07T23:00:37.714Z,18.20
2018-05-07T23:03:03.705Z,18.10
2018-05-07T23:05:29.911Z,18.20
2018-05-07T23:07:56.025Z,18.10
2018-05-07T23:10:22.008Z,18.00
2018-05-07T23:12:48.283Z,18.10
2018-05-07T23:15:14.987Z,18.10
2018-05-07T23:17:40.948Z,18.00
2018-05-07T23:20:06.928Z,18.10
2018-05-07T23:22:32.900Z,18.00
2018-05-07T23:24:58.893Z,18.10
2018-05-07T23:27:24.889Z,17.90
2018-05-07T23:29:52.335Z,18.00
2018-05-07T23:32:18.299Z,17.90
2018-05-07T23:34:44.298Z,17.90
2018-05-07T23:37:10.254Z,17.90
2018-05-07T23:39:36.216Z,17.80
2018-05-07T23:42:02.945Z,18.00
2018-05-07T23:44:30.455Z,17.80
2018-05-07T23:46:57.183Z,17.90
2018-05-07T23:49:24.138Z,17.90
2018-05-07T23:51:50.115Z,17.80
2018-05-07T23:54:16.079Z,17.90
2018-05-07T23:56:42.906Z,17.90
2018-05-07T23:59:08.899Z,17.90
